Sanford, Florida
Current Conditions -  °F | °C
As of 9:57 PM on Tuesday 25 Nov 2014 (Local Time) from KSFB Reporting Station
Thunderstorm Thunderstorm  
Wind Chill: 69°   Ceiling: 1700
Heat Index: 69°   Visibility: 1.7mi
Dew Point: 68°   Wind: 5mph
Humidity: 96%   Direction: 140°SE
Pressure: 29.92"   Gusts: NA
Location:  28.81°N, 81.27°W
Report Text: KSFB 260257Z 14004KT 1 3/4SM VCTS +RA BR SCT006 BKN017 OVC050 21/20 A2992 RMK AO2 LTG DSNT SW-N P0011 T02060200
Loading
Personal Weather Stations






























Interactive Weather Map New forecast layout! Learn more

10-Day Weather Forecast

Advertisements
Track Severe Weather on mobile